Rechercher aéroport 
image banner adimage banner adimage banner ad
image banner ad

CL40 - Antelope Valley Service Center

Situé à Lancaster, United States

ICAO - CL40, IATA -

Données fournies par Airmate  

Information générale

Coordonnées: N34°38'53" W118°8'43"
Élévation : 2522 feet MSL.
Variation magnétique : 14° East
Voir autres Aéroports à California

Données opérationnelles

Special qualification required
Heure actuelle UTC:
Heure actuelle locale:
Météo à : KPMD - Palmdale Usaf Plant 42 ( 6 km )
METAR: KPMD 270453Z 15004KT 10SM CLR 26/13 A3003 RMK AO2 SLP142 T02560133
TAF: KPMD 262346Z 2700/2724 24007KT P6SM VCSH BKN120 FM270400 23007KT P6SM SCT150 FM272200 23010KT P6SM VCTS BKN090CB
Voir NOTAMs / SUP AIP / TFR affectant cet aéroport [VIEW]
Fréquences de communication: [VIEW]

Pistes:

Coordonnées de l'aéroport

Adresse: Lancaster United States

Vue satellite de CL40